createdAt,value
2022-09-09T00:01:11.842Z,12.82
2022-09-09T00:03:49.340Z,12.77
2022-09-09T00:06:31.268Z,12.76
2022-09-09T00:09:13.312Z,12.67
2022-09-09T00:12:04.546Z,12.63
2022-09-09T00:14:43.211Z,12.53
2022-09-09T00:17:16.312Z,12.47
2022-09-09T00:19:51.544Z,12.51
2022-09-09T00:22:26.353Z,12.53
2022-09-09T00:24:57.450Z,12.49
2022-09-09T00:27:33.387Z,12.51
2022-09-09T00:30:19.728Z,12.47
2022-09-09T00:32:50.564Z,12.43
2022-09-09T00:35:26.147Z,12.38
2022-09-09T00:37:57.620Z,12.36
2022-09-09T00:40:32.699Z,12.35
2022-09-09T00:43:11.821Z,12.33
2022-09-09T00:45:56.107Z,12.34
2022-09-09T00:48:37.478Z,12.30
2022-09-09T00:51:15.719Z,12.28
2022-09-09T00:54:12.802Z,12.26
2022-09-09T00:56:52.215Z,12.21
2022-09-09T00:59:43.904Z,12.20
2022-09-09T01:02:38.469Z,12.18
2022-09-09T01:05:14.895Z,12.17
2022-09-09T01:07:48.106Z,12.15
2022-09-09T01:10:44.494Z,12.13
2022-09-09T01:13:20.312Z,12.12
2022-09-09T01:15:49.470Z,12.06
2022-09-09T01:18:20.661Z,12.04
2022-09-09T01:21:32.272Z,12.02
2022-09-09T01:24:13.812Z,12.00
2022-09-09T01:26:46.059Z,11.99
2022-09-09T01:29:16.117Z,11.97
2022-09-09T01:32:02.374Z,11.95
2022-09-09T01:34:39.899Z,11.96
2022-09-09T01:37:10.366Z,11.86
2022-09-09T01:39:39.907Z,11.79
2022-09-09T01:42:10.119Z,11.79
2022-09-09T01:44:38.144Z,11.77
2022-09-09T01:47:06.001Z,11.70
2022-09-09T01:49:33.982Z,11.74
2022-09-09T01:52:01.038Z,11.76
2022-09-09T01:54:32.250Z,11.81
2022-09-09T01:57:21.871Z,11.78
2022-09-09T02:00:12.595Z,11.77
2022-09-09T02:02:45.138Z,11.77
2022-09-09T02:05:38.405Z,11.73
2022-09-09T02:08:09.005Z,11.74
2022-09-09T02:10:51.710Z,11.72
2022-09-09T02:13:22.554Z,11.70
2022-09-09T02:16:24.298Z,11.70
2022-09-09T02:19:11.681Z,11.71
2022-09-09T02:21:38.397Z,11.69
2022-09-09T02:24:09.103Z,11.71
2022-09-09T02:26:41.384Z,11.70
2022-09-09T02:29:14.247Z,11.67
2022-09-09T02:31:44.741Z,11.66
2022-09-09T02:34:13.425Z,11.61
2022-09-09T02:36:44.486Z,11.59
2022-09-09T02:39:11.552Z,11.51
2022-09-09T02:41:40.972Z,11.51
2022-09-09T02:44:18.977Z,11.52
2022-09-09T02:46:54.989Z,11.53
2022-09-09T02:49:40.617Z,11.56
2022-09-09T02:52:09.327Z,11.59
2022-09-09T02:54:40.045Z,11.63
2022-09-09T02:57:15.437Z,11.50
2022-09-09T02:59:44.337Z,11.48
2022-09-09T03:02:12.471Z,11.49
2022-09-09T03:04:40.392Z,11.48
2022-09-09T03:07:07.312Z,11.51
2022-09-09T03:09:34.009Z,11.56
2022-09-09T03:12:01.391Z,11.54
2022-09-09T03:14:28.096Z,11.58
2022-09-09T03:16:55.408Z,11.58
2022-09-09T03:19:22.626Z,11.57
2022-09-09T03:21:49.324Z,11.59
2022-09-09T03:24:16.084Z,11.59
2022-09-09T03:26:45.845Z,11.56
2022-09-09T03:29:15.926Z,11.58
2022-09-09T03:31:44.045Z,11.58
2022-09-09T03:34:11.151Z,11.60
2022-09-09T03:36:37.910Z,11.62
2022-09-09T03:39:04.682Z,11.60
2022-09-09T03:41:32.214Z,11.61
2022-09-09T03:43:58.839Z,11.64
2022-09-09T03:46:27.333Z,11.67
2022-09-09T03:48:54.448Z,11.68
2022-09-09T03:51:22.728Z,11.65
2022-09-09T03:53:49.505Z,11.66
2022-09-09T03:56:16.355Z,11.68
2022-09-09T03:58:43.033Z,11.68
2022-09-09T04:01:15.303Z,11.67
2022-09-09T04:03:42.359Z,11.74
2022-09-09T04:06:11.964Z,11.76
2022-09-09T04:08:39.697Z,11.71
2022-09-09T04:11:07.314Z,11.76
2022-09-09T04:13:41.333Z,11.80
2022-09-09T04:16:09.305Z,11.82
2022-09-09T04:18:36.059Z,11.86
2022-09-09T04:21:04.698Z,11.88
2022-09-09T04:23:31.764Z,11.87
2022-09-09T04:26:00.171Z,11.87
2022-09-09T04:28:29.557Z,11.84
2022-09-09T04:30:57.968Z,11.84
2022-09-09T04:33:27.587Z,11.84
2022-09-09T04:35:54.830Z,11.85
2022-09-09T04:38:23.737Z,11.83
2022-09-09T04:40:52.542Z,11.82
2022-09-09T04:43:23.369Z,11.81
2022-09-09T04:45:52.279Z,11.81
2022-09-09T04:48:19.799Z,11.84
2022-09-09T04:51:05.899Z,11.87
2022-09-09T04:53:33.124Z,11.90
2022-09-09T04:56:07.921Z,11.99
2022-09-09T04:58:34.856Z,12.01
2022-09-09T05:01:08.705Z,12.05
2022-09-09T05:03:35.865Z,12.07
2022-09-09T05:06:10.809Z,12.13
2022-09-09T05:08:38.834Z,12.16
2022-09-09T05:11:17.469Z,12.16
2022-09-09T05:13:45.212Z,12.18
2022-09-09T05:16:12.385Z,12.23
2022-09-09T05:18:40.408Z,12.26
2022-09-09T05:21:07.839Z,12.29
2022-09-09T05:23:35.594Z,12.30
2022-09-09T05:26:02.642Z,12.35
2022-09-09T05:28:29.796Z,12.40
2022-09-09T05:30:58.545Z,12.42
2022-09-09T05:33:26.847Z,12.44
2022-09-09T05:36:02.637Z,12.49
2022-09-09T05:38:30.144Z,12.54
2022-09-09T05:40:59.884Z,12.52
2022-09-09T05:43:28.266Z,12.53
2022-09-09T05:46:26.208Z,12.58
2022-09-09T05:48:54.572Z,12.64
2022-09-09T05:51:26.224Z,12.90
2022-09-09T05:53:53.073Z,12.94
2022-09-09T05:56:27.794Z,12.96
2022-09-09T05:58:55.698Z,13.03
2022-09-09T06:01:23.489Z,13.12
2022-09-09T06:03:51.909Z,13.15
2022-09-09T06:06:23.818Z,13.19
2022-09-09T06:08:53.362Z,13.21
2022-09-09T06:11:25.875Z,13.23
2022-09-09T06:13:54.868Z,13.26
2022-09-09T06:16:27.348Z,13.29
2022-09-09T06:18:56.060Z,13.45
2022-09-09T06:21:25.147Z,13.62
2022-09-09T06:23:58.997Z,13.82
2022-09-09T06:26:35.533Z,14.01
2022-09-09T06:29:04.927Z,14.17
2022-09-09T06:31:35.544Z,14.24
2022-09-09T06:34:03.321Z,14.44
2022-09-09T06:36:36.108Z,14.52
2022-09-09T06:39:03.879Z,14.59
2022-09-09T06:41:32.560Z,14.68
2022-09-09T06:43:59.225Z,14.70
2022-09-09T06:46:32.322Z,14.79
2022-09-09T06:49:00.910Z,14.81
2022-09-09T06:51:32.167Z,14.86
2022-09-09T06:54:01.667Z,14.88
2022-09-09T06:56:30.702Z,14.93
2022-09-09T06:59:03.461Z,14.99
2022-09-09T07:01:32.860Z,15.13
2022-09-09T07:04:00.524Z,15.20
2022-09-09T07:06:32.293Z,15.21
2022-09-09T07:09:01.804Z,15.32
2022-09-09T07:11:34.479Z,15.35
2022-09-09T07:14:02.074Z,15.42
2022-09-09T07:16:30.561Z,15.53
2022-09-09T07:18:58.919Z,15.65
2022-09-09T07:21:30.800Z,15.78
2022-09-09T07:23:58.134Z,15.75
2022-09-09T07:26:27.202Z,15.77
2022-09-09T07:28:54.666Z,15.79
2022-09-09T07:31:25.905Z,15.86
2022-09-09T07:33:52.850Z,15.85
2022-09-09T07:36:32.546Z,15.89
2022-09-09T07:39:03.007Z,15.93
2022-09-09T07:41:36.024Z,15.93
2022-09-09T07:44:08.282Z,15.83
2022-09-09T07:46:36.565Z,15.87
2022-09-09T07:49:04.267Z,15.88
2022-09-09T07:51:34.223Z,15.89
2022-09-09T07:54:06.967Z,15.92
2022-09-09T07:56:34.519Z,15.96
2022-09-09T07:59:02.225Z,15.95
2022-09-09T08:01:32.655Z,16.03
2022-09-09T08:04:00.410Z,16.05
2022-09-09T08:06:28.859Z,16.08
2022-09-09T08:08:56.077Z,16.17
2022-09-09T08:11:25.384Z,16.21
2022-09-09T08:13:54.783Z,16.22
2022-09-09T08:16:28.340Z,16.27
2022-09-09T08:18:56.128Z,16.30
2022-09-09T08:21:26.080Z,16.33
2022-09-09T08:23:57.820Z,16.37
2022-09-09T08:26:32.365Z,16.46
2022-09-09T08:29:00.843Z,16.50
2022-09-09T08:31:29.275Z,16.47
2022-09-09T08:33:56.982Z,16.44
2022-09-09T08:36:26.817Z,16.50
2022-09-09T08:38:56.782Z,16.57
2022-09-09T08:41:44.871Z,16.61
2022-09-09T08:44:33.174Z,16.65
2022-09-09T08:47:11.665Z,16.59
2022-09-09T08:50:06.228Z,16.54
2022-09-09T08:52:43.225Z,16.54
2022-09-09T08:55:25.596Z,16.55
2022-09-09T08:57:55.706Z,16.61
2022-09-09T09:00:25.380Z,16.44
2022-09-09T09:03:18.693Z,16.14
2022-09-09T09:06:06.873Z,16.07
2022-09-09T09:08:46.341Z,16.02
2022-09-09T09:11:13.135Z,15.92
2022-09-09T09:13:45.637Z,15.83
2022-09-09T09:16:33.624Z,15.81
2022-09-09T09:19:01.284Z,15.68
2022-09-09T09:21:57.364Z,15.69
2022-09-09T09:24:47.181Z,15.68
2022-09-09T09:27:17.258Z,15.74
2022-09-09T09:30:18.147Z,15.78
2022-09-09T09:32:36.036Z,15.87
2022-09-09T09:35:05.757Z,15.93
2022-09-09T09:40:25.479Z,16.13
2022-09-09T09:42:59.257Z,16.16
2022-09-09T09:45:46.756Z,16.19
2022-09-09T09:48:22.638Z,16.21
2022-09-09T09:50:51.526Z,16.23
2022-09-09T09:53:30.421Z,16.28
2022-09-09T09:56:02.827Z,16.33
2022-09-09T09:58:34.878Z,16.36
2022-09-09T10:01:02.341Z,16.44
2022-09-09T10:03:31.619Z,16.58
2022-09-09T10:05:58.931Z,16.76
2022-09-09T10:08:26.982Z,16.81
2022-09-09T10:11:24.690Z,16.92
2022-09-09T10:14:18.499Z,17.18
2022-09-09T10:17:00.226Z,17.32
2022-09-09T10:19:34.653Z,17.46
2022-09-09T10:22:29.455Z,17.58
2022-09-09T10:25:23.410Z,17.73
2022-09-09T10:28:29.022Z,17.88
2022-09-09T10:31:01.574Z,18.09
2022-09-09T10:34:07.481Z,18.22
2022-09-09T10:36:34.094Z,18.31
2022-09-09T10:39:30.057Z,18.58
2022-09-09T10:42:06.943Z,19.01
2022-09-09T10:44:57.502Z,19.23
2022-09-09T10:47:33.190Z,19.28
2022-09-09T10:51:00.636Z,19.26
2022-09-09T10:53:58.226Z,19.25
2022-09-09T10:56:26.486Z,19.23
2022-09-09T10:58:59.361Z,19.16
2022-09-09T11:01:30.382Z,19.20
2022-09-09T11:04:09.903Z,19.22
2022-09-09T11:06:43.570Z,19.19
2022-09-09T11:09:18.206Z,19.12
2022-09-09T11:11:55.336Z,19.08
2022-09-09T11:14:40.220Z,18.96
2022-09-09T11:17:28.057Z,18.93
2022-09-09T11:19:55.981Z,18.86
2022-09-09T11:22:34.958Z,18.79
2022-09-09T11:25:16.935Z,18.69
2022-09-09T11:28:07.750Z,18.61
2022-09-09T11:30:56.446Z,18.54
2022-09-09T11:33:58.184Z,18.42
2022-09-09T11:36:39.259Z,18.37
2022-09-09T11:39:21.591Z,18.35
2022-09-09T11:41:48.250Z,18.33
2022-09-09T11:44:28.008Z,18.25
2022-09-09T11:46:54.697Z,18.16
2022-09-09T11:49:44.854Z,18.15
2022-09-09T11:52:23.832Z,18.18
2022-09-09T11:54:51.396Z,18.24
2022-09-09T11:57:32.264Z,18.30
2022-09-09T12:00:00.445Z,18.33
2022-09-09T12:02:32.342Z,18.39
2022-09-09T12:05:09.767Z,18.50
2022-09-09T12:07:39.451Z,18.57
2022-09-09T12:10:23.274Z,18.69
2022-09-09T12:12:50.004Z,18.78
2022-09-09T12:15:16.596Z,18.79
2022-09-09T12:17:45.958Z,18.73
2022-09-09T12:20:32.480Z,18.73
2022-09-09T12:23:14.436Z,18.74
2022-09-09T12:25:56.282Z,18.67
2022-09-09T12:28:25.407Z,18.65
2022-09-09T12:31:19.126Z,18.71
2022-09-09T12:33:48.575Z,18.81
2022-09-09T12:36:22.788Z,18.89
2022-09-09T12:38:51.812Z,18.89
2022-09-09T12:41:22.479Z,18.90
2022-09-09T12:43:51.025Z,18.96
2022-09-09T12:46:43.122Z,19.04
2022-09-09T12:49:35.198Z,19.07
2022-09-09T12:52:18.086Z,19.05
2022-09-09T12:54:48.253Z,19.01
2022-09-09T12:57:16.018Z,18.94
2022-09-09T12:59:49.220Z,18.92
2022-09-09T13:02:24.567Z,18.71
2022-09-09T13:04:52.174Z,18.58
2022-09-09T13:07:20.639Z,18.51
2022-09-09T13:09:50.512Z,18.44
2022-09-09T13:12:23.651Z,18.35
2022-09-09T13:14:54.241Z,18.23
2022-09-09T13:17:30.245Z,18.15
2022-09-09T13:19:58.155Z,18.10
2022-09-09T13:22:35.620Z,18.08
2022-09-09T13:25:12.475Z,18.08
2022-09-09T13:27:42.070Z,18.06
2022-09-09T13:30:27.142Z,18.04
2022-09-09T13:33:11.962Z,18.04
2022-09-09T13:35:53.320Z,18.08
2022-09-09T13:38:20.130Z,18.01
2022-09-09T13:41:05.569Z,17.97
2022-09-09T13:43:37.620Z,17.88
2022-09-09T13:46:22.672Z,17.84
2022-09-09T13:49:01.057Z,17.81
2022-09-09T13:51:38.178Z,17.81
2022-09-09T13:54:10.578Z,17.76
2022-09-09T13:56:39.811Z,17.74
2022-09-09T13:59:10.615Z,17.71
2022-09-09T14:01:38.643Z,17.68
2022-09-09T14:04:07.555Z,17.66
2022-09-09T14:06:41.012Z,17.64
2022-09-09T14:09:11.549Z,17.63
2022-09-09T14:11:38.167Z,17.58
2022-09-09T14:14:04.848Z,17.57
2022-09-09T14:16:31.479Z,17.59
2022-09-09T14:18:58.251Z,17.64
2022-09-09T14:21:25.303Z,17.71
2022-09-09T14:23:53.704Z,17.71
2022-09-09T14:26:22.172Z,17.67
2022-09-09T14:28:55.426Z,17.69
2022-09-09T14:31:26.074Z,17.67
2022-09-09T14:33:53.639Z,17.64
2022-09-09T14:36:20.414Z,17.60
2022-09-09T14:38:47.490Z,17.53
2022-09-09T14:41:19.549Z,17.47
2022-09-09T14:43:46.960Z,17.45
2022-09-09T14:46:16.683Z,17.41
2022-09-09T14:48:45.098Z,17.32
2022-09-09T14:51:30.065Z,17.29
2022-09-09T14:53:59.036Z,17.20
2022-09-09T14:56:28.119Z,17.16
2022-09-09T14:58:56.854Z,17.15
2022-09-09T15:01:24.094Z,17.15
2022-09-09T15:04:05.836Z,17.12
2022-09-09T15:06:35.015Z,17.08
2022-09-09T15:09:02.358Z,17.08
2022-09-09T15:11:38.589Z,17.11
2022-09-09T15:14:06.995Z,17.11
2022-09-09T15:16:34.275Z,17.07
2022-09-09T15:19:03.452Z,17.06
2022-09-09T15:21:33.264Z,17.11
2022-09-09T15:24:00.389Z,17.11
2022-09-09T15:26:28.543Z,17.06
2022-09-09T15:28:55.873Z,17.05
2022-09-09T15:31:31.015Z,17.09
2022-09-09T15:34:02.206Z,17.02
2022-09-09T15:36:36.340Z,17.04
2022-09-09T15:39:05.197Z,17.03
2022-09-09T15:41:34.884Z,17.04
2022-09-09T15:44:02.066Z,17.00
2022-09-09T15:46:40.667Z,16.98
2022-09-09T15:49:10.382Z,16.97
2022-09-09T15:51:43.073Z,17.01
2022-09-09T15:54:13.380Z,16.99
2022-09-09T15:56:40.907Z,16.94
2022-09-09T15:59:08.042Z,16.93
2022-09-09T16:01:36.561Z,16.95
2022-09-09T16:04:03.725Z,16.95
2022-09-09T16:06:31.077Z,16.94
2022-09-09T16:09:00.561Z,16.97
2022-09-09T16:11:33.079Z,16.97
2022-09-09T16:14:00.575Z,16.99
2022-09-09T16:16:30.084Z,16.97
2022-09-09T16:19:02.337Z,16.99
2022-09-09T16:21:35.366Z,17.00
2022-09-09T16:24:03.990Z,17.02
2022-09-09T16:26:33.683Z,17.04
2022-09-09T16:29:01.577Z,17.01
2022-09-09T16:31:30.091Z,16.97
2022-09-09T16:33:56.993Z,16.93
2022-09-09T16:36:26.330Z,16.86
2022-09-09T16:38:55.167Z,16.78
2022-09-09T16:41:22.037Z,16.72
2022-09-09T16:43:53.151Z,16.66
2022-09-09T16:46:21.321Z,16.60
2022-09-09T16:48:48.943Z,16.54
2022-09-09T16:51:36.892Z,16.45
2022-09-09T16:54:07.589Z,16.43
2022-09-09T16:56:38.073Z,16.40
2022-09-09T16:59:07.653Z,16.35
2022-09-09T17:01:38.543Z,16.33
2022-09-09T17:04:08.725Z,16.30
2022-09-09T17:06:37.756Z,16.28
2022-09-09T17:09:10.495Z,16.24
2022-09-09T17:11:39.365Z,16.21
2022-09-09T17:14:08.677Z,16.19
2022-09-09T17:16:35.434Z,16.13
2022-09-09T17:19:04.630Z,16.10
2022-09-09T17:21:32.995Z,16.08
2022-09-09T17:24:00.379Z,16.02
2022-09-09T17:26:30.072Z,16.00
2022-09-09T17:28:59.812Z,16.00
2022-09-09T17:31:28.579Z,16.03
2022-09-09T17:33:56.103Z,15.98
2022-09-09T17:36:28.269Z,15.94
2022-09-09T17:38:55.341Z,15.90
2022-09-09T17:41:30.983Z,15.86
2022-09-09T17:43:59.476Z,15.82
2022-09-09T17:46:31.420Z,15.80
2022-09-09T17:49:01.360Z,15.77
2022-09-09T17:51:31.168Z,15.76
2022-09-09T17:54:01.868Z,15.75
2022-09-09T17:56:31.688Z,15.75
2022-09-09T17:58:59.803Z,15.74
2022-09-09T18:01:29.637Z,15.72
2022-09-09T18:03:57.712Z,15.72
2022-09-09T18:06:31.042Z,15.69
2022-09-09T18:09:04.059Z,15.66
2022-09-09T18:11:35.067Z,15.60
2022-09-09T18:14:03.594Z,15.60
2022-09-09T18:16:34.875Z,15.60
2022-09-09T18:19:04.153Z,15.62
2022-09-09T18:21:33.284Z,15.58
2022-09-09T18:24:02.141Z,15.55
2022-09-09T18:26:28.837Z,15.54
2022-09-09T18:28:57.801Z,15.52
2022-09-09T18:31:27.152Z,15.53
2022-09-09T18:33:55.760Z,15.55
2022-09-09T18:36:24.879Z,15.56
2022-09-09T18:38:52.174Z,15.52
2022-09-09T18:41:24.361Z,15.52
2022-09-09T18:43:54.376Z,15.46
2022-09-09T18:46:22.588Z,15.45
2022-09-09T18:48:50.639Z,15.47
2022-09-09T18:51:23.514Z,15.52
2022-09-09T18:53:56.291Z,15.48
2022-09-09T18:56:23.282Z,15.49
2022-09-09T18:58:55.847Z,15.49
2022-09-09T19:01:23.109Z,15.47
2022-09-09T19:03:50.155Z,15.46
2022-09-09T19:06:20.238Z,15.49
2022-09-09T19:08:50.055Z,15.46
2022-09-09T19:11:22.495Z,15.46
2022-09-09T19:13:54.456Z,15.42
2022-09-09T19:16:23.244Z,15.41
2022-09-09T19:18:52.023Z,15.42
2022-09-09T19:21:19.910Z,15.41
2022-09-09T19:23:47.956Z,15.40
2022-09-09T19:26:17.878Z,15.38
2022-09-09T19:28:50.106Z,15.36
2022-09-09T19:31:18.922Z,15.31
2022-09-09T19:33:47.790Z,15.31
2022-09-09T19:36:17.928Z,15.26
2022-09-09T19:38:46.343Z,15.27
2022-09-09T19:41:25.386Z,15.24
2022-09-09T19:43:56.680Z,15.21
2022-09-09T19:46:23.372Z,15.16
2022-09-09T19:48:50.230Z,15.15
2022-09-09T19:51:19.682Z,15.14
2022-09-09T19:53:51.796Z,15.12
2022-09-09T19:56:20.030Z,15.13
2022-09-09T19:58:48.473Z,15.15
2022-09-09T20:01:18.015Z,15.12
2022-09-09T20:03:47.949Z,15.09
2022-09-09T20:06:17.705Z,15.08
2022-09-09T20:08:48.917Z,15.07
2022-09-09T20:11:17.370Z,15.03
2022-09-09T20:13:44.785Z,15.05
2022-09-09T20:16:13.092Z,15.06
2022-09-09T20:18:46.179Z,15.03
2022-09-09T20:21:16.235Z,15.02
2022-09-09T20:23:44.444Z,15.02
2022-09-09T20:26:17.631Z,14.99
2022-09-09T20:28:45.229Z,14.97
2022-09-09T20:31:15.074Z,14.92
2022-09-09T20:33:43.468Z,14.93
2022-09-09T20:36:12.541Z,14.88
2022-09-09T20:38:47.088Z,14.85
2022-09-09T20:41:18.495Z,14.80
2022-09-09T20:43:54.909Z,14.78
2022-09-09T20:46:27.260Z,14.76
2022-09-09T20:49:02.665Z,14.77
2022-09-09T20:51:33.272Z,14.79
2022-09-09T20:54:06.063Z,14.77
2022-09-09T20:56:37.647Z,14.73
2022-09-09T20:59:05.966Z,14.73
2022-09-09T21:01:32.703Z,14.69
2022-09-09T21:04:00.219Z,14.68
2022-09-09T21:06:26.986Z,14.66
2022-09-09T21:08:53.640Z,14.66
2022-09-09T21:11:20.386Z,14.66
2022-09-09T21:13:47.034Z,14.62
2022-09-09T21:16:16.700Z,14.60
2022-09-09T21:18:44.500Z,14.58
2022-09-09T21:21:11.782Z,14.56
2022-09-09T21:23:38.936Z,14.55
2022-09-09T21:26:05.773Z,14.52
2022-09-09T21:28:32.636Z,14.54
2022-09-09T21:30:59.639Z,14.53
2022-09-09T21:33:28.330Z,14.50
2022-09-09T21:36:02.343Z,14.42
2022-09-09T21:38:29.388Z,14.41
2022-09-09T21:40:56.002Z,14.37
2022-09-09T21:43:23.719Z,14.34
2022-09-09T21:45:51.003Z,14.34
2022-09-09T21:48:20.872Z,14.36
2022-09-09T21:50:48.213Z,14.32
2022-09-09T21:53:18.184Z,14.31
2022-09-09T21:55:47.805Z,14.31
2022-09-09T21:58:15.987Z,14.30
2022-09-09T22:00:47.138Z,14.29
2022-09-09T22:03:15.673Z,14.31
2022-09-09T22:05:44.116Z,14.31
2022-09-09T22:08:13.017Z,14.29
2022-09-09T22:10:42.447Z,14.28
2022-09-09T22:13:09.069Z,14.26
2022-09-09T22:15:36.718Z,14.24
2022-09-09T22:18:04.402Z,14.22
2022-09-09T22:20:39.692Z,14.21
2022-09-09T22:23:06.304Z,14.22
2022-09-09T22:25:35.210Z,14.20
2022-09-09T22:28:07.911Z,14.20
2022-09-09T22:30:35.309Z,14.19
2022-09-09T22:33:02.707Z,14.15
2022-09-09T22:35:29.365Z,14.14
2022-09-09T22:37:58.107Z,14.11
2022-09-09T22:40:24.777Z,14.09
2022-09-09T22:42:53.118Z,14.06
2022-09-09T22:45:21.781Z,14.00
2022-09-09T22:47:48.786Z,13.88
2022-09-09T22:50:15.423Z,13.88
2022-09-09T22:52:42.382Z,13.88
2022-09-09T22:55:09.517Z,13.86
2022-09-09T22:57:37.177Z,13.84
2022-09-09T23:00:09.011Z,13.85
2022-09-09T23:02:40.930Z,13.85
2022-09-09T23:05:08.899Z,13.84
2022-09-09T23:07:36.726Z,13.83
2022-09-09T23:10:06.928Z,13.81
2022-09-09T23:12:34.386Z,13.81
2022-09-09T23:15:03.140Z,13.76
2022-09-09T23:17:30.372Z,13.74
2022-09-09T23:19:58.160Z,13.72
2022-09-09T23:22:24.836Z,13.73
2022-09-09T23:24:52.881Z,13.71
2022-09-09T23:27:21.457Z,13.69
2022-09-09T23:29:48.886Z,13.70
2022-09-09T23:32:16.004Z,13.66
2022-09-09T23:34:42.726Z,13.67
2022-09-09T23:37:11.302Z,13.66
2022-09-09T23:39:40.342Z,13.68
2022-09-09T23:42:08.416Z,13.68
2022-09-09T23:44:39.643Z,13.63
2022-09-09T23:47:07.798Z,13.56
2022-09-09T23:49:35.912Z,13.57
2022-09-09T23:52:05.462Z,13.55
2022-09-09T23:54:34.178Z,13.53
2022-09-09T23:57:03.238Z,13.50
2022-09-09T23:59:31.006Z,13.50
